KGIF/GIF METAR and TAF weather

Enter ICAO airport designator
Station Type Date Time Source
KGIF METAR 2020/01/27 13:53 UTC NOAA

KGIF 271353Z AUTO 08003KT 10SM OVC080 14/08 A2999 RMK AO2 SLP155 T01440078


Station Type Date Time Source
KGIF Decoded METAR 2020/01/27 13:53 UTC NOAA

WINTER HAVENS GILBERT AIRPORT , FL, United States (KGIF) 28-04N 81-45W 43M
Jan 27, 2020 - 08:53 AM EST / 2020.01.27 1353 UTC
Wind: from the E (080 degrees) at 3 MPH (3 KT):0
Visibility: 10 mile(s):0
Sky conditions: overcast
Temperature: 57.9 F (14.4 C)
Dew Point: 46.0 F (7.8 C)
Relative Humidity: 64%
Pressure (altimeter): 29.99 in. Hg (1015 hPa)
ob: KGIF 271353Z AUTO 08003KT 10SM OVC080 14/08 A2999 RMK AO2 SLP155 T01440078
cycle: 14

Station Type Date Time Source
KGIF TAF UTC NOAA

Error!

Example: see airport list